KHYA/HYA METAR and TAF weather

Enter ICAO airport designator
Station Type Date Time Source
KHYA METAR 2020/01/26 03:56 UTC NOAA

KHYA 260356Z AUTO 14009G17KT 2 1/2SM RA BR OVC002 09/08 A2972 RMK AO2 SLP066 P0013 T00940083


Station Type Date Time Source
KHYA Decoded METAR 2020/01/26 03:56 UTC NOAA

HYANNIS BARNSTABLE BOARDMN, MA, United States (KHYA) 41-40N 070-16W 22M
Jan 25, 2020 - 10:56 PM EST / 2020.01.26 0356 UTC
Wind: from the SE (140 degrees) at 10 MPH (9 KT) gusting to 20 MPH (17 KT):0
Visibility: 2 1/2 mile(s):0
Sky conditions: overcast
Weather: rain; mist
Precipitation last hour: 0.13 inches
Temperature: 48.9 F (9.4 C)
Dew Point: 46.9 F (8.3 C)
Relative Humidity: 92%
Pressure (altimeter): 29.72 in. Hg (1006 hPa)
ob: KHYA 260356Z AUTO 14009G17KT 2 1/2SM RA BR OVC002 09/08 A2972 RMK AO2 SLP066 P0013 T00940083
cycle: 4

Station Type Date Time Source
KHYA TAF 2020/01/26 03:12 UTC NOAA

TAF
AMD KHYA 260310Z 2603/2624 13010G20KT 4SM RA BR OVC002 WS020/15055KT
FM260400 15017G26KT 2SM RA OVC003
FM260700 23010KT 4SM BR OVC005
FM261200 25008KT 4SM BR OVC008
FM261500 25012G19KT P6SM BKN035

Example: see airport list